sensor_id;sensor_type;location;lat;lon;timestamp;pressure;altitude;pressure_sealevel;temperature;humidity
61870;BME280;47810;42.264;23.826;2022-07-29T00:00:07;94065.44;;;19.86;69.96
61870;BME280;47810;42.264;23.826;2022-07-29T00:02:34;94073.34;;;19.88;69.48
61870;BME280;47810;42.264;23.826;2022-07-29T00:04:59;94080.19;;;19.72;70.20
61870;BME280;47810;42.264;23.826;2022-07-29T00:07:25;94071.50;;;20.06;70.14
61870;BME280;47810;42.264;23.826;2022-07-29T00:09:51;94073.66;;;20.20;69.30
61870;BME280;47810;42.264;23.826;2022-07-29T00:12:21;94069.34;;;20.28;68.45
61870;BME280;47810;42.264;23.826;2022-07-29T00:14:47;94072.66;;;20.39;68.42
61870;BME280;47810;42.264;23.826;2022-07-29T00:17:13;94076.84;;;20.06;69.24
61870;BME280;47810;42.264;23.826;2022-07-29T00:19:39;94073.81;;;20.01;69.24
61870;BME280;47810;42.264;23.826;2022-07-29T00:22:05;94074.41;;;19.95;69.48
61870;BME280;47810;42.264;23.826;2022-07-29T00:24:31;94075.84;;;19.89;69.26
61870;BME280;47810;42.264;23.826;2022-07-29T00:26:57;94079.75;;;19.95;69.35
61870;BME280;47810;42.264;23.826;2022-07-29T00:29:23;94070.28;;;20.00;69.09
61870;BME280;47810;42.264;23.826;2022-07-29T00:31:49;94071.03;;;19.93;68.97
61870;BME280;47810;42.264;23.826;2022-07-29T00:34:14;94071.94;;;19.84;69.49
61870;BME280;47810;42.264;23.826;2022-07-29T00:36:59;94072.28;;;19.43;69.52
61870;BME280;47810;42.264;23.826;2022-07-29T00:39:24;94068.72;;;19.52;69.96
61870;BME280;47810;42.264;23.826;2022-07-29T00:41:50;94069.25;;;19.56;69.69
61870;BME280;47810;42.264;23.826;2022-07-29T00:44:16;94068.09;;;19.68;69.23
61870;BME280;47810;42.264;23.826;2022-07-29T00:46:42;94071.16;;;19.73;70.26
61870;BME280;47810;42.264;23.826;2022-07-29T00:49:08;94064.44;;;19.60;69.96
61870;BME280;47810;42.264;23.826;2022-07-29T00:51:37;94068.09;;;19.68;69.80
61870;BME280;47810;42.264;23.826;2022-07-29T00:54:04;94062.19;;;19.65;70.02
61870;BME280;47810;42.264;23.826;2022-07-29T00:56:31;94061.50;;;19.81;68.84
61870;BME280;47810;42.264;23.826;2022-07-29T00:58:58;94055.94;;;19.92;68.90
61870;BME280;47810;42.264;23.826;2022-07-29T01:01:24;94063.75;;;19.85;68.26
61870;BME280;47810;42.264;23.826;2022-07-29T01:03:49;94061.84;;;19.77;68.22
61870;BME280;47810;42.264;23.826;2022-07-29T01:06:16;94069.00;;;19.49;68.85
61870;BME280;47810;42.264;23.826;2022-07-29T01:08:44;94066.22;;;19.41;69.27
61870;BME280;47810;42.264;23.826;2022-07-29T01:11:11;94071.44;;;19.43;69.74
61870;BME280;47810;42.264;23.826;2022-07-29T01:13:37;94069.34;;;19.37;70.12
61870;BME280;47810;42.264;23.826;2022-07-29T01:16:11;94068.81;;;19.33;69.08
61870;BME280;47810;42.264;23.826;2022-07-29T01:18:42;94060.69;;;19.15;69.55
61870;BME280;47810;42.264;23.826;2022-07-29T01:24:11;94059.44;;;18.72;71.07
61870;BME280;47810;42.264;23.826;2022-07-29T01:29:14;94052.31;;;18.91;70.65
61870;BME280;47810;42.264;23.826;2022-07-29T01:31:48;94046.88;;;18.82;70.72
61870;BME280;47810;42.264;23.826;2022-07-29T01:34:23;94050.97;;;18.67;70.85
61870;BME280;47810;42.264;23.826;2022-07-29T01:36:56;94057.44;;;18.55;71.27
61870;BME280;47810;42.264;23.826;2022-07-29T01:39:30;94040.84;;;18.61;71.07
61870;BME280;47810;42.264;23.826;2022-07-29T01:42:15;94037.72;;;18.85;70.37
61870;BME280;47810;42.264;23.826;2022-07-29T01:45:00;94045.06;;;18.73;70.36
61870;BME280;47810;42.264;23.826;2022-07-29T01:48:19;94043.78;;;18.77;70.23
61870;BME280;47810;42.264;23.826;2022-07-29T01:50:20;94040.53;;;18.64;70.47
61870;BME280;47810;42.264;23.826;2022-07-29T01:53:00;94046.16;;;18.80;70.53
61870;BME280;47810;42.264;23.826;2022-07-29T01:55:29;94049.66;;;18.91;70.38
61870;BME280;47810;42.264;23.826;2022-07-29T01:57:57;94045.88;;;18.83;70.65
61870;BME280;47810;42.264;23.826;2022-07-29T02:00:25;94043.91;;;18.85;70.83
61870;BME280;47810;42.264;23.826;2022-07-29T02:02:53;94048.78;;;19.00;70.51
61870;BME280;47810;42.264;23.826;2022-07-29T02:05:21;94049.44;;;19.12;70.17
61870;BME280;47810;42.264;23.826;2022-07-29T02:07:49;94044.75;;;19.23;69.71
61870;BME280;47810;42.264;23.826;2022-07-29T02:10:19;94050.00;;;19.15;69.57
61870;BME280;47810;42.264;23.826;2022-07-29T02:12:47;94041.88;;;19.07;70.82
61870;BME280;47810;42.264;23.826;2022-07-29T02:15:14;94044.53;;;19.07;70.69
61870;BME280;47810;42.264;23.826;2022-07-29T02:17:57;94037.13;;;18.91;71.27
61870;BME280;47810;42.264;23.826;2022-07-29T02:20:25;94037.41;;;18.98;70.36
61870;BME280;47810;42.264;23.826;2022-07-29T02:22:53;94049.25;;;18.85;69.89
61870;BME280;47810;42.264;23.826;2022-07-29T02:25:21;94041.94;;;18.68;70.60
61870;BME280;47810;42.264;23.826;2022-07-29T02:27:50;94045.94;;;18.45;70.48
61870;BME280;47810;42.264;23.826;2022-07-29T02:30:17;94039.41;;;18.67;70.18
61870;BME280;47810;42.264;23.826;2022-07-29T02:32:44;94045.06;;;18.54;70.20
61870;BME280;47810;42.264;23.826;2022-07-29T02:35:13;94034.34;;;18.63;70.20
61870;BME280;47810;42.264;23.826;2022-07-29T02:37:41;94044.72;;;18.96;69.79
61870;BME280;47810;42.264;23.826;2022-07-29T02:40:10;94037.09;;;19.01;69.46
61870;BME280;47810;42.264;23.826;2022-07-29T02:42:37;94037.28;;;18.90;68.82
61870;BME280;47810;42.264;23.826;2022-07-29T02:45:05;94045.47;;;18.78;69.18
61870;BME280;47810;42.264;23.826;2022-07-29T02:47:36;94038.56;;;18.66;69.64
61870;BME280;47810;42.264;23.826;2022-07-29T02:52:43;94033.66;;;18.61;70.28
61870;BME280;47810;42.264;23.826;2022-07-29T02:55:18;94038.06;;;18.53;71.18
61870;BME280;47810;42.264;23.826;2022-07-29T02:57:48;94033.09;;;18.58;71.71
61870;BME280;47810;42.264;23.826;2022-07-29T03:00:15;94039.16;;;18.60;71.76
61870;BME280;47810;42.264;23.826;2022-07-29T03:02:45;94033.63;;;18.71;71.19
61870;BME280;47810;42.264;23.826;2022-07-29T03:05:16;94040.56;;;18.74;71.23
61870;BME280;47810;42.264;23.826;2022-07-29T03:07:45;94038.56;;;18.66;71.34
61870;BME280;47810;42.264;23.826;2022-07-29T03:10:12;94043.78;;;18.58;71.98
61870;BME280;47810;42.264;23.826;2022-07-29T03:12:39;94043.22;;;18.64;71.38
61870;BME280;47810;42.264;23.826;2022-07-29T03:15:06;94041.41;;;18.55;70.82
61870;BME280;47810;42.264;23.826;2022-07-29T03:17:32;94041.38;;;18.74;70.80
61870;BME280;47810;42.264;23.826;2022-07-29T03:19:59;94042.25;;;18.65;71.02
61870;BME280;47810;42.264;23.826;2022-07-29T03:22:26;94049.44;;;18.55;70.88
61870;BME280;47810;42.264;23.826;2022-07-29T03:24:51;94043.00;;;18.28;71.25
61870;BME280;47810;42.264;23.826;2022-07-29T03:27:17;94048.50;;;18.17;72.04
61870;BME280;47810;42.264;23.826;2022-07-29T03:29:43;94041.16;;;18.29;71.38
61870;BME280;47810;42.264;23.826;2022-07-29T03:32:08;94045.09;;;18.34;71.07
61870;BME280;47810;42.264;23.826;2022-07-29T03:34:36;94044.53;;;18.41;70.62
61870;BME280;47810;42.264;23.826;2022-07-29T03:37:02;94040.06;;;18.12;71.34
61870;BME280;47810;42.264;23.826;2022-07-29T03:39:31;94043.16;;;18.36;70.67
61870;BME280;47810;42.264;23.826;2022-07-29T03:41:59;94038.63;;;18.37;70.58
61870;BME280;47810;42.264;23.826;2022-07-29T03:44:27;94042.84;;;18.39;70.31
61870;BME280;47810;42.264;23.826;2022-07-29T03:46:54;94039.47;;;18.28;70.18
61870;BME280;47810;42.264;23.826;2022-07-29T03:49:21;94044.00;;;18.18;70.52
61870;BME280;47810;42.264;23.826;2022-07-29T03:51:49;94047.63;;;18.07;71.65
61870;BME280;47810;42.264;23.826;2022-07-29T03:54:16;94040.59;;;18.25;70.71
61870;BME280;47810;42.264;23.826;2022-07-29T03:56:43;94043.13;;;17.98;71.31
61870;BME280;47810;42.264;23.826;2022-07-29T03:59:17;94041.72;;;18.13;70.88
61870;BME280;47810;42.264;23.826;2022-07-29T04:01:44;94046.50;;;18.29;71.00
61870;BME280;47810;42.264;23.826;2022-07-29T04:04:11;94040.06;;;18.22;70.32
61870;BME280;47810;42.264;23.826;2022-07-29T04:06:38;94043.44;;;18.33;70.44
61870;BME280;47810;42.264;23.826;2022-07-29T04:09:04;94043.09;;;18.75;68.91
61870;BME280;47810;42.264;23.826;2022-07-29T04:11:30;94042.25;;;18.75;69.45
61870;BME280;47810;42.264;23.826;2022-07-29T04:13:56;94034.16;;;18.94;68.98
61870;BME280;47810;42.264;23.826;2022-07-29T04:16:21;94038.16;;;19.18;69.23
61870;BME280;47810;42.264;23.826;2022-07-29T04:18:47;94039.09;;;19.26;69.99
61870;BME280;47810;42.264;23.826;2022-07-29T04:21:13;94037.53;;;19.34;70.90
61870;BME280;47810;42.264;23.826;2022-07-29T04:23:39;94050.09;;;19.51;71.66
61870;BME280;47810;42.264;23.826;2022-07-29T04:26:06;94043.47;;;19.55;71.80
61870;BME280;47810;42.264;23.826;2022-07-29T04:28:35;94057.47;;;19.49;71.82
61870;BME280;47810;42.264;23.826;2022-07-29T04:31:00;94047.81;;;19.56;72.59
61870;BME280;47810;42.264;23.826;2022-07-29T04:33:27;94053.19;;;19.56;72.08
61870;BME280;47810;42.264;23.826;2022-07-29T04:35:52;94054.22;;;19.73;71.86
61870;BME280;47810;42.264;23.826;2022-07-29T04:38:18;94056.66;;;19.94;71.03
61870;BME280;47810;42.264;23.826;2022-07-29T04:40:44;94056.94;;;19.91;71.29
61870;BME280;47810;42.264;23.826;2022-07-29T04:43:10;94062.31;;;20.09;70.43
61870;BME280;47810;42.264;23.826;2022-07-29T04:45:35;94065.53;;;20.12;70.42
61870;BME280;47810;42.264;23.826;2022-07-29T04:48:01;94068.06;;;20.14;71.50
61870;BME280;47810;42.264;23.826;2022-07-29T04:50:27;94060.31;;;20.29;72.09
61870;BME280;47810;42.264;23.826;2022-07-29T04:52:52;94057.72;;;20.01;70.72
61870;BME280;47810;42.264;23.826;2022-07-29T04:55:18;94052.66;;;19.98;71.22
61870;BME280;47810;42.264;23.826;2022-07-29T04:57:44;94058.78;;;20.08;70.83
61870;BME280;47810;42.264;23.826;2022-07-29T05:00:10;94057.34;;;20.14;71.40
61870;BME280;47810;42.264;23.826;2022-07-29T05:02:36;94059.34;;;20.30;70.34
61870;BME280;47810;42.264;23.826;2022-07-29T05:05:13;94055.72;;;20.39;70.43
61870;BME280;47810;42.264;23.826;2022-07-29T05:07:38;94062.22;;;20.54;69.08
61870;BME280;47810;42.264;23.826;2022-07-29T05:10:04;94063.00;;;20.64;69.32
61870;BME280;47810;42.264;23.826;2022-07-29T05:12:30;94058.31;;;20.66;69.63
61870;BME280;47810;42.264;23.826;2022-07-29T05:14:56;94059.03;;;20.77;69.15
61870;BME280;47810;42.264;23.826;2022-07-29T05:17:22;94055.28;;;20.87;68.75
61870;BME280;47810;42.264;23.826;2022-07-29T05:19:47;94061.94;;;20.83;68.53
61870;BME280;47810;42.264;23.826;2022-07-29T05:22:13;94060.53;;;20.97;67.83
61870;BME280;47810;42.264;23.826;2022-07-29T05:24:39;94062.13;;;21.08;68.02
61870;BME280;47810;42.264;23.826;2022-07-29T05:27:05;94060.13;;;21.10;67.89
61870;BME280;47810;42.264;23.826;2022-07-29T05:29:30;94073.25;;;21.21;66.98
61870;BME280;47810;42.264;23.826;2022-07-29T05:31:56;94073.91;;;21.15;68.28
61870;BME280;47810;42.264;23.826;2022-07-29T05:34:22;94070.31;;;21.32;67.40
61870;BME280;47810;42.264;23.826;2022-07-29T05:36:49;94071.38;;;21.39;69.08
61870;BME280;47810;42.264;23.826;2022-07-29T05:39:15;94077.03;;;21.62;67.53
61870;BME280;47810;42.264;23.826;2022-07-29T05:41:41;94076.38;;;21.69;67.55
61870;BME280;47810;42.264;23.826;2022-07-29T05:44:06;94074.38;;;21.71;66.85
61870;BME280;47810;42.264;23.826;2022-07-29T05:46:32;94071.06;;;21.77;66.84
61870;BME280;47810;42.264;23.826;2022-07-29T05:48:58;94073.41;;;21.80;65.96
61870;BME280;47810;42.264;23.826;2022-07-29T05:51:23;94080.16;;;21.92;67.00
61870;BME280;47810;42.264;23.826;2022-07-29T05:53:49;94078.19;;;22.02;66.02
61870;BME280;47810;42.264;23.826;2022-07-29T05:56:15;94083.22;;;22.05;65.57
61870;BME280;47810;42.264;23.826;2022-07-29T05:58:41;94084.53;;;22.01;65.51
61870;BME280;47810;42.264;23.826;2022-07-29T06:01:06;94075.13;;;21.97;65.47
61870;BME280;47810;42.264;23.826;2022-07-29T06:03:32;94081.94;;;21.75;65.53
61870;BME280;47810;42.264;23.826;2022-07-29T06:05:58;94078.09;;;21.86;66.51
61870;BME280;47810;42.264;23.826;2022-07-29T06:08:24;94072.94;;;21.93;65.40
61870;BME280;47810;42.264;23.826;2022-07-29T06:10:49;94081.44;;;21.72;65.44
61870;BME280;47810;42.264;23.826;2022-07-29T06:13:15;94076.16;;;21.96;64.39
61870;BME280;47810;42.264;23.826;2022-07-29T06:15:42;94078.25;;;21.76;65.28
61870;BME280;47810;42.264;23.826;2022-07-29T06:18:12;94087.50;;;21.74;65.89
61870;BME280;47810;42.264;23.826;2022-07-29T06:20:38;94083.16;;;21.81;68.16
61870;BME280;47810;42.264;23.826;2022-07-29T06:23:04;94079.16;;;21.93;66.30
61870;BME280;47810;42.264;23.826;2022-07-29T06:25:30;94081.84;;;22.01;65.57
61870;BME280;47810;42.264;23.826;2022-07-29T06:27:57;94079.53;;;22.06;67.63
61870;BME280;47810;42.264;23.826;2022-07-29T06:30:24;94081.03;;;22.01;65.52
61870;BME280;47810;42.264;23.826;2022-07-29T06:32:49;94083.22;;;22.05;66.75
61870;BME280;47810;42.264;23.826;2022-07-29T06:35:15;94093.72;;;22.33;65.98
61870;BME280;47810;42.264;23.826;2022-07-29T06:37:41;94085.31;;;22.36;64.33
61870;BME280;47810;42.264;23.826;2022-07-29T06:40:07;94082.97;;;22.33;63.23
61870;BME280;47810;42.264;23.826;2022-07-29T06:42:51;94085.34;;;22.52;64.06
61870;BME280;47810;42.264;23.826;2022-07-29T06:45:17;94082.34;;;22.64;64.13
61870;BME280;47810;42.264;23.826;2022-07-29T06:47:43;94084.34;;;22.70;63.53
61870;BME280;47810;42.264;23.826;2022-07-29T06:50:09;94086.34;;;22.76;64.27
61870;BME280;47810;42.264;23.826;2022-07-29T06:52:40;94085.84;;;22.89;62.40
61870;BME280;47810;42.264;23.826;2022-07-29T06:55:07;94072.06;;;23.00;64.63
61870;BME280;47810;42.264;23.826;2022-07-29T06:57:34;94079.97;;;23.18;62.76
61870;BME280;47810;42.264;23.826;2022-07-29T06:59:59;94075.22;;;23.20;63.73
61870;BME280;47810;42.264;23.826;2022-07-29T07:02:25;94074.53;;;23.34;64.03
61870;BME280;47810;42.264;23.826;2022-07-29T07:04:51;94076.16;;;23.52;61.91
61870;BME280;47810;42.264;23.826;2022-07-29T07:07:17;94076.09;;;23.68;60.26
61870;BME280;47810;42.264;23.826;2022-07-29T07:09:43;94074.13;;;23.70;59.22
61870;BME280;47810;42.264;23.826;2022-07-29T07:12:08;94068.31;;;23.81;58.09
61870;BME280;47810;42.264;23.826;2022-07-29T07:14:34;94068.31;;;23.89;59.53
61870;BME280;47810;42.264;23.826;2022-07-29T07:17:00;94066.56;;;23.97;56.87
61870;BME280;47810;42.264;23.826;2022-07-29T07:19:26;94067.75;;;24.25;55.58
61870;BME280;47810;42.264;23.826;2022-07-29T07:21:53;94068.44;;;24.27;55.23
61870;BME280;47810;42.264;23.826;2022-07-29T07:24:18;94066.34;;;24.37;55.78
61870;BME280;47810;42.264;23.826;2022-07-29T07:26:44;94065.53;;;24.60;54.93
61870;BME280;47810;42.264;23.826;2022-07-29T07:29:10;94067.88;;;24.63;55.13
61870;BME280;47810;42.264;23.826;2022-07-29T07:31:37;94066.72;;;24.80;56.41
61870;BME280;47810;42.264;23.826;2022-07-29T07:34:03;94065.59;;;25.13;55.27
61870;BME280;47810;42.264;23.826;2022-07-29T07:36:29;94063.00;;;25.19;52.78
61870;BME280;47810;42.264;23.826;2022-07-29T07:38:55;94060.03;;;25.29;51.34
61870;BME280;47810;42.264;23.826;2022-07-29T07:41:21;94070.69;;;25.30;53.25
61870;BME280;47810;42.264;23.826;2022-07-29T07:43:47;94078.97;;;25.44;51.42
61870;BME280;47810;42.264;23.826;2022-07-29T07:46:14;94069.84;;;25.60;52.53
61870;BME280;47810;42.264;23.826;2022-07-29T07:48:40;94059.38;;;25.71;52.75
61870;BME280;47810;42.264;23.826;2022-07-29T07:51:06;94069.38;;;25.71;50.94
61870;BME280;47810;42.264;23.826;2022-07-29T07:53:32;94064.66;;;25.88;51.80
61870;BME280;47810;42.264;23.826;2022-07-29T07:55:58;94060.16;;;25.95;50.87
61870;BME280;47810;42.264;23.826;2022-07-29T07:58:24;94071.44;;;25.98;53.26
61870;BME280;47810;42.264;23.826;2022-07-29T08:00:50;94066.66;;;26.15;49.28
61870;BME280;47810;42.264;23.826;2022-07-29T08:03:16;94062.31;;;26.36;47.88
61870;BME280;47810;42.264;23.826;2022-07-29T08:05:42;94065.66;;;26.38;47.52
61870;BME280;47810;42.264;23.826;2022-07-29T08:08:07;94054.28;;;26.28;47.76
61870;BME280;47810;42.264;23.826;2022-07-29T08:10:33;94063.50;;;26.69;49.54
61870;BME280;47810;42.264;23.826;2022-07-29T08:13:18;94060.34;;;26.87;47.20
61870;BME280;47810;42.264;23.826;2022-07-29T08:15:44;94063.06;;;26.87;45.38
61870;BME280;47810;42.264;23.826;2022-07-29T08:18:11;94053.97;;;27.16;46.97
61870;BME280;47810;42.264;23.826;2022-07-29T08:20:38;94048.53;;;27.16;44.28
61870;BME280;47810;42.264;23.826;2022-07-29T08:23:06;94053.06;;;27.37;44.38
61870;BME280;47810;42.264;23.826;2022-07-29T08:25:36;94056.78;;;27.64;43.54
61870;BME280;47810;42.264;23.826;2022-07-29T08:28:02;94057.59;;;27.58;43.43
61870;BME280;47810;42.264;23.826;2022-07-29T08:30:28;94059.47;;;27.93;43.06
61870;BME280;47810;42.264;23.826;2022-07-29T08:32:53;94057.06;;;28.18;41.31
61870;BME280;47810;42.264;23.826;2022-07-29T08:35:20;94056.19;;;28.04;39.14
61870;BME280;47810;42.264;23.826;2022-07-29T08:37:46;94049.91;;;27.97;41.48
61870;BME280;47810;42.264;23.826;2022-07-29T08:40:12;94059.63;;;28.26;41.21
61870;BME280;47810;42.264;23.826;2022-07-29T08:42:37;94053.44;;;28.45;42.75
61870;BME280;47810;42.264;23.826;2022-07-29T08:45:04;94054.75;;;28.83;42.27
61870;BME280;47810;42.264;23.826;2022-07-29T08:47:32;94060.88;;;29.05;43.32
61870;BME280;47810;42.264;23.826;2022-07-29T08:49:58;94061.06;;;28.90;42.46
61870;BME280;47810;42.264;23.826;2022-07-29T08:52:25;94058.50;;;28.75;41.51
61870;BME280;47810;42.264;23.826;2022-07-29T08:54:52;94058.88;;;28.52;42.29
61870;BME280;47810;42.264;23.826;2022-07-29T08:57:19;94053.91;;;28.69;40.24
61870;BME280;47810;42.264;23.826;2022-07-29T08:59:50;94047.69;;;29.15;39.53
61870;BME280;47810;42.264;23.826;2022-07-29T09:02:22;94048.72;;;29.40;39.68
61870;BME280;47810;42.264;23.826;2022-07-29T09:04:49;94043.50;;;29.39;38.33
61870;BME280;47810;42.264;23.826;2022-07-29T09:07:17;94041.63;;;29.33;38.80
61870;BME280;47810;42.264;23.826;2022-07-29T09:09:43;94044.78;;;29.10;40.13
61870;BME280;47810;42.264;23.826;2022-07-29T09:12:12;94030.13;;;29.24;38.12
61870;BME280;47810;42.264;23.826;2022-07-29T09:14:38;94031.81;;;29.25;37.61
61870;BME280;47810;42.264;23.826;2022-07-29T09:17:04;94033.06;;;29.29;39.26
61870;BME280;47810;42.264;23.826;2022-07-29T09:19:32;94035.09;;;29.47;38.03
61870;BME280;47810;42.264;23.826;2022-07-29T09:22:02;94037.38;;;29.83;39.45
61870;BME280;47810;42.264;23.826;2022-07-29T09:27:00;94028.06;;;30.11;38.01
61870;BME280;47810;42.264;23.826;2022-07-29T09:29:27;94026.66;;;30.02;39.06
61870;BME280;47810;42.264;23.826;2022-07-29T09:31:54;94021.66;;;29.85;40.40
61870;BME280;47810;42.264;23.826;2022-07-29T09:34:25;94013.56;;;30.17;37.63
61870;BME280;47810;42.264;23.826;2022-07-29T09:36:52;94016.88;;;30.32;36.23
61870;BME280;47810;42.264;23.826;2022-07-29T09:39:32;94014.88;;;30.21;34.19
61870;BME280;47810;42.264;23.826;2022-07-29T09:42:06;94019.97;;;30.43;37.65
61870;BME280;47810;42.264;23.826;2022-07-29T09:44:48;94013.84;;;30.54;34.75
61870;BME280;47810;42.264;23.826;2022-07-29T09:47:15;94008.31;;;30.67;32.46
61870;BME280;47810;42.264;23.826;2022-07-29T09:49:51;94016.69;;;30.66;33.82
61870;BME280;47810;42.264;23.826;2022-07-29T09:52:17;94023.59;;;30.30;34.25
61870;BME280;47810;42.264;23.826;2022-07-29T09:54:44;94019.03;;;30.24;35.29
61870;BME280;47810;42.264;23.826;2022-07-29T09:57:22;94019.59;;;29.74;34.35
61870;BME280;47810;42.264;23.826;2022-07-29T10:00:00;94027.63;;;29.22;35.00
61870;BME280;47810;42.264;23.826;2022-07-29T10:02:31;94021.34;;;29.35;35.54
61870;BME280;47810;42.264;23.826;2022-07-29T10:04:57;94019.44;;;29.42;34.83
61870;BME280;47810;42.264;23.826;2022-07-29T10:07:24;94019.03;;;29.32;32.11
61870;BME280;47810;42.264;23.826;2022-07-29T10:09:55;94020.91;;;29.38;33.92
61870;BME280;47810;42.264;23.826;2022-07-29T10:12:23;94006.63;;;29.76;35.04
61870;BME280;47810;42.264;23.826;2022-07-29T10:14:50;94010.34;;;29.88;32.53
61870;BME280;47810;42.264;23.826;2022-07-29T10:17:16;94011.28;;;29.29;31.49
61870;BME280;47810;42.264;23.826;2022-07-29T10:19:43;94011.50;;;29.28;33.91
61870;BME280;47810;42.264;23.826;2022-07-29T10:22:10;94010.50;;;29.09;33.10
61870;BME280;47810;42.264;23.826;2022-07-29T10:24:37;94014.84;;;29.23;32.83
61870;BME280;47810;42.264;23.826;2022-07-29T10:27:08;94015.50;;;29.25;34.89
61870;BME280;47810;42.264;23.826;2022-07-29T10:29:34;94014.63;;;28.98;35.04
61870;BME280;47810;42.264;23.826;2022-07-29T10:43:22;94000.81;;;28.73;35.09
61870;BME280;47810;42.264;23.826;2022-07-29T10:45:56;94012.31;;;28.88;36.91
61870;BME280;47810;42.264;23.826;2022-07-29T10:48:23;94001.25;;;28.83;36.89
61870;BME280;47810;42.264;23.826;2022-07-29T10:51:01;93999.38;;;28.84;36.95
61870;BME280;47810;42.264;23.826;2022-07-29T10:53:51;94001.44;;;28.68;35.21
61870;BME280;47810;42.264;23.826;2022-07-29T10:56:30;93991.56;;;28.41;36.99
61870;BME280;47810;42.264;23.826;2022-07-29T11:01:47;93985.31;;;28.40;36.60
61870;BME280;47810;42.264;23.826;2022-07-29T11:04:15;93986.78;;;28.43;38.35
61870;BME280;47810;42.264;23.826;2022-07-29T11:09:26;93983.22;;;28.42;36.92
61870;BME280;47810;42.264;23.826;2022-07-29T11:11:56;93990.75;;;28.53;38.18
61870;BME280;47810;42.264;23.826;2022-07-29T11:17:20;93988.66;;;28.55;38.03
61870;BME280;47810;42.264;23.826;2022-07-29T11:19:45;93992.66;;;28.73;37.94
61870;BME280;47810;42.264;23.826;2022-07-29T11:22:34;93979.91;;;28.93;37.31
61870;BME280;47810;42.264;23.826;2022-07-29T11:25:20;93982.44;;;29.15;36.75
61870;BME280;47810;42.264;23.826;2022-07-29T11:27:46;93972.81;;;29.19;36.92
61870;BME280;47810;42.264;23.826;2022-07-29T11:30:12;93967.75;;;29.42;36.36
61870;BME280;47810;42.264;23.826;2022-07-29T11:32:42;93964.59;;;29.45;36.86
61870;BME280;47810;42.264;23.826;2022-07-29T11:35:23;93957.03;;;30.19;37.15
61870;BME280;47810;42.264;23.826;2022-07-29T11:41:25;93954.78;;;31.04;34.98
61870;BME280;47810;42.264;23.826;2022-07-29T11:43:59;93947.88;;;31.45;33.72
61870;BME280;47810;42.264;23.826;2022-07-29T11:46:44;93947.22;;;31.68;32.87
61870;BME280;47810;42.264;23.826;2022-07-29T11:49:11;93945.78;;;31.22;33.79
61870;BME280;47810;42.264;23.826;2022-07-29T11:51:38;93944.53;;;30.68;34.51
61870;BME280;47810;42.264;23.826;2022-07-29T11:54:04;93942.38;;;30.83;35.43
61870;BME280;47810;42.264;23.826;2022-07-29T11:56:32;93940.09;;;30.80;32.83
61870;BME280;47810;42.264;23.826;2022-07-29T11:59:06;93945.16;;;31.02;33.70
61870;BME280;47810;42.264;23.826;2022-07-29T12:01:33;93947.00;;;31.26;35.02
61870;BME280;47810;42.264;23.826;2022-07-29T12:04:06;93949.59;;;31.21;34.43
61870;BME280;47810;42.264;23.826;2022-07-29T12:06:35;93945.31;;;31.50;34.16
61870;BME280;47810;42.264;23.826;2022-07-29T12:09:07;93940.22;;;31.36;33.80
61870;BME280;47810;42.264;23.826;2022-07-29T12:11:34;93935.78;;;31.16;32.89
61870;BME280;47810;42.264;23.826;2022-07-29T12:14:00;93939.25;;;31.48;33.16
61870;BME280;47810;42.264;23.826;2022-07-29T12:16:35;93941.09;;;31.29;32.51
61870;BME280;47810;42.264;23.826;2022-07-29T12:19:04;93935.38;;;31.13;33.88
61870;BME280;47810;42.264;23.826;2022-07-29T12:21:50;93935.88;;;31.28;33.34
61870;BME280;47810;42.264;23.826;2022-07-29T12:24:17;93931.69;;;31.50;32.95
61870;BME280;47810;42.264;23.826;2022-07-29T12:27:09;93927.44;;;31.73;31.83
61870;BME280;47810;42.264;23.826;2022-07-29T12:29:35;93926.34;;;31.55;33.17
61870;BME280;47810;42.264;23.826;2022-07-29T12:32:03;93934.94;;;31.59;32.13
61870;BME280;47810;42.264;23.826;2022-07-29T12:34:31;93935.31;;;31.19;31.70
61870;BME280;47810;42.264;23.826;2022-07-29T12:36:57;93931.97;;;31.17;32.47
61870;BME280;47810;42.264;23.826;2022-07-29T12:39:24;93933.72;;;31.12;33.27
61870;BME280;47810;42.264;23.826;2022-07-29T12:41:53;93925.75;;;31.10;33.63
61870;BME280;47810;42.264;23.826;2022-07-29T12:44:19;93920.31;;;31.10;32.81
61870;BME280;47810;42.264;23.826;2022-07-29T12:46:45;93924.38;;;31.01;32.91
61870;BME280;47810;42.264;23.826;2022-07-29T12:49:23;93916.75;;;30.84;32.35
61870;BME280;47810;42.264;23.826;2022-07-29T12:51:49;93925.00;;;31.03;33.07
61870;BME280;47810;42.264;23.826;2022-07-29T12:54:15;93916.31;;;30.88;32.17
61870;BME280;47810;42.264;23.826;2022-07-29T12:56:42;93918.16;;;30.62;32.46
61870;BME280;47810;42.264;23.826;2022-07-29T12:59:20;93920.25;;;30.67;32.14
61870;BME280;47810;42.264;23.826;2022-07-29T13:01:48;93917.69;;;30.97;31.62
61870;BME280;47810;42.264;23.826;2022-07-29T13:04:28;93909.66;;;31.27;31.49
61870;BME280;47810;42.264;23.826;2022-07-29T13:07:04;93902.94;;;31.48;31.23
61870;BME280;47810;42.264;23.826;2022-07-29T13:09:43;93889.75;;;31.45;32.36
61870;BME280;47810;42.264;23.826;2022-07-29T13:12:11;93896.41;;;31.67;31.42
61870;BME280;47810;42.264;23.826;2022-07-29T13:14:39;93887.31;;;31.73;32.84
61870;BME280;47810;42.264;23.826;2022-07-29T13:17:10;93890.94;;;31.86;34.36
61870;BME280;47810;42.264;23.826;2022-07-29T13:19:45;93882.13;;;31.84;32.03
61870;BME280;47810;42.264;23.826;2022-07-29T13:22:14;93877.28;;;31.67;31.03
61870;BME280;47810;42.264;23.826;2022-07-29T13:27:24;93877.91;;;31.51;29.84
61870;BME280;47810;42.264;23.826;2022-07-29T13:29:51;93878.94;;;31.13;30.21
61870;BME280;47810;42.264;23.826;2022-07-29T13:32:19;93883.47;;;31.01;31.89